createdAt,value
2023-05-21T04:01:53.072Z,99.90
2023-05-21T04:04:20.902Z,99.90
2023-05-21T04:06:49.576Z,99.90
2023-05-21T04:09:17.462Z,99.90
2023-05-21T04:11:45.359Z,99.90
2023-05-21T04:14:13.171Z,99.90
2023-05-21T04:16:43.906Z,99.90
2023-05-21T04:19:13.217Z,99.90
2023-05-21T04:21:41.080Z,99.90
2023-05-21T04:24:08.866Z,99.90
2023-05-21T04:26:36.676Z,99.90
2023-05-21T04:29:04.851Z,99.90
2023-05-21T04:31:33.133Z,99.90
2023-05-21T04:34:01.040Z,99.90
2023-05-21T04:36:30.252Z,99.90
2023-05-21T04:38:58.120Z,99.90
2023-05-21T04:41:25.996Z,99.90
2023-05-21T04:43:55.109Z,99.90
2023-05-21T04:46:25.185Z,99.90
2023-05-21T04:48:55.015Z,99.90
2023-05-21T04:51:24.728Z,99.90
2023-05-21T04:53:54.216Z,99.90
2023-05-21T04:56:22.777Z,99.90
2023-05-21T04:58:50.745Z,99.90
2023-05-21T05:03:47.150Z,99.90
2023-05-21T05:06:15.029Z,99.90
2023-05-21T05:08:42.967Z,99.90
2023-05-21T05:11:12.122Z,99.90
2023-05-21T05:13:41.745Z,99.90
2023-05-21T05:16:09.959Z,99.90
2023-05-21T05:18:37.799Z,99.90
2023-05-21T05:21:05.678Z,99.90
2023-05-21T05:23:33.464Z,99.90
2023-05-21T05:26:01.466Z,99.90
2023-05-21T05:28:30.866Z,99.90
2023-05-21T05:30:58.652Z,99.90
2023-05-21T05:33:26.509Z,99.90
2023-05-21T05:35:54.357Z,99.90
2023-05-21T05:38:22.151Z,99.90
2023-05-21T05:40:49.921Z,99.90
2023-05-21T05:43:17.796Z,99.90
2023-05-21T05:45:47.112Z,99.90
2023-05-21T05:48:15.008Z,99.90
2023-05-21T05:50:42.767Z,99.90
2023-05-21T05:53:13.141Z,99.90
2023-05-21T05:55:40.929Z,99.90
2023-05-21T05:58:08.819Z,99.90
2023-05-21T06:00:36.650Z,99.90
2023-05-21T06:03:06.407Z,99.90
2023-05-21T06:05:34.424Z,99.90
2023-05-21T06:08:02.396Z,99.90
2023-05-21T06:10:30.208Z,99.90
2023-05-21T06:12:58.000Z,99.90
2023-05-21T06:15:26.668Z,99.90
2023-05-21T06:17:54.617Z,99.90
2023-05-21T06:20:24.570Z,99.90
2023-05-21T06:22:52.939Z,99.90
2023-05-21T06:25:20.894Z,99.90
2023-05-21T06:27:48.902Z,99.90
2023-05-21T06:30:16.852Z,99.90
2023-05-21T06:32:45.206Z,99.90
2023-05-21T06:35:14.640Z,99.90
2023-05-21T06:37:44.006Z,99.90
2023-05-21T06:40:12.318Z,99.90
2023-05-21T06:42:40.088Z,99.90
2023-05-21T06:45:08.921Z,99.90
2023-05-21T06:47:36.761Z,99.90
2023-05-21T06:50:05.092Z,99.90
2023-05-21T06:52:32.898Z,99.90
2023-05-21T06:55:02.133Z,99.90
2023-05-21T06:57:29.944Z,99.90
2023-05-21T06:59:57.697Z,99.90
2023-05-21T07:02:25.636Z,99.90
2023-05-21T07:04:55.615Z,99.90
2023-05-21T07:07:23.456Z,99.90
2023-05-21T07:09:51.369Z,99.90
2023-05-21T07:12:20.547Z,99.90
2023-05-21T07:14:48.849Z,99.90
2023-05-21T07:17:16.742Z,99.90
2023-05-21T07:19:44.521Z,99.90
2023-05-21T07:22:12.814Z,99.90
2023-05-21T07:24:40.592Z,99.90
2023-05-21T07:27:17.686Z,99.90
2023-05-21T07:29:54.256Z,99.90
2023-05-21T07:32:26.791Z,99.90
2023-05-21T07:34:54.679Z,99.90
2023-05-21T07:37:22.677Z,99.90
2023-05-21T07:39:50.497Z,99.90
2023-05-21T07:42:18.265Z,99.90
2023-05-21T07:44:46.270Z,99.90
2023-05-21T07:47:15.603Z,99.90
2023-05-21T07:49:43.446Z,99.90
2023-05-21T07:52:11.374Z,99.90
2023-05-21T07:54:39.219Z,99.90
2023-05-21T07:57:07.129Z,99.90
2023-05-21T07:59:34.951Z,99.90
2023-05-21T08:02:02.794Z,99.90
2023-05-21T08:04:32.156Z,99.90
2023-05-21T08:07:00.001Z,99.90
2023-05-21T08:09:28.182Z,99.90
2023-05-21T08:11:56.023Z,99.90
2023-05-21T08:14:23.875Z,99.90
2023-05-21T08:16:51.686Z,99.90
2023-05-21T08:19:19.569Z,99.90
2023-05-21T08:21:51.319Z,99.90
2023-05-21T08:24:20.780Z,99.90
2023-05-21T08:26:49.609Z,99.90
2023-05-21T08:30:05.514Z,99.90
2023-05-21T08:32:33.328Z,99.90
2023-05-21T08:35:05.953Z,99.90
2023-05-21T08:37:35.108Z,99.90
2023-05-21T08:40:04.237Z,99.90
2023-05-21T08:42:40.568Z,99.90
2023-05-21T08:45:10.147Z,99.90
2023-05-21T08:47:38.195Z,99.90
2023-05-21T08:50:08.566Z,99.90
2023-05-21T08:52:38.055Z,99.90
2023-05-21T08:55:06.984Z,99.90
2023-05-21T08:57:35.160Z,99.90
2023-05-21T09:00:04.738Z,99.90
2023-05-21T09:02:35.421Z,99.90
2023-05-21T09:05:04.750Z,99.90
2023-05-21T09:07:35.329Z,99.90
2023-05-21T09:10:08.223Z,99.90
2023-05-21T09:12:36.504Z,99.90
2023-05-21T09:15:05.250Z,99.90
2023-05-21T09:17:33.196Z,99.90
2023-05-21T09:20:12.518Z,99.90
2023-05-21T09:22:44.329Z,99.90
2023-05-21T09:25:14.754Z,99.90
2023-05-21T09:27:43.110Z,99.90
2023-05-21T09:30:12.527Z,99.90
2023-05-21T09:32:40.908Z,99.90
2023-05-21T09:35:10.368Z,99.90
2023-05-21T09:37:43.736Z,99.90
2023-05-21T09:40:15.211Z,99.90
2023-05-21T09:42:46.568Z,99.90
2023-05-21T09:45:18.682Z,99.90
2023-05-21T09:47:47.423Z,99.90
2023-05-21T09:50:19.388Z,99.90
2023-05-21T09:52:47.799Z,99.90
2023-05-21T09:55:18.045Z,99.90
2023-05-21T09:57:49.753Z,99.90
2023-05-21T10:00:20.104Z,99.90
2023-05-21T10:02:49.128Z,99.90
2023-05-21T10:05:18.062Z,99.90
2023-05-21T10:07:50.892Z,99.90
2023-05-21T10:10:21.828Z,99.90
2023-05-21T10:12:55.483Z,99.90
2023-05-21T10:15:25.776Z,99.90
2023-05-21T10:17:53.853Z,99.90
2023-05-21T10:20:23.307Z,99.90
2023-05-21T10:22:51.774Z,99.90
2023-05-21T10:25:21.662Z,99.90
2023-05-21T10:30:19.678Z,99.90
2023-05-21T10:32:49.862Z,99.90
2023-05-21T10:37:47.088Z,99.90
2023-05-21T10:40:15.314Z,99.90
2023-05-21T10:43:03.834Z,99.90
2023-05-21T10:45:42.925Z,99.90
2023-05-21T10:48:27.673Z,99.90
2023-05-21T10:51:24.816Z,92.10
2023-05-21T10:54:28.463Z,87.80
2023-05-21T10:57:04.616Z,77.80
2023-05-21T10:59:41.851Z,73.70
2023-05-21T11:02:12.435Z,69.80
2023-05-21T11:04:43.296Z,66.00
2023-05-21T11:07:11.917Z,79.30
2023-05-21T11:09:39.971Z,52.10
2023-05-21T11:12:09.826Z,48.90
2023-05-21T11:14:42.045Z,43.30
2023-05-21T11:17:17.502Z,44.40
2023-05-21T11:19:47.276Z,45.50
2023-05-21T11:22:27.299Z,44.50
2023-05-21T11:25:03.790Z,43.00
2023-05-21T11:27:34.316Z,41.90
2023-05-21T11:30:08.559Z,40.90
2023-05-21T11:35:09.865Z,36.60
2023-05-21T11:40:23.788Z,36.90
2023-05-21T11:42:56.001Z,38.50
2023-05-21T11:45:31.799Z,39.10
2023-05-21T11:48:01.052Z,37.50
2023-05-21T11:50:30.850Z,40.30
2023-05-21T11:53:00.261Z,37.20
2023-05-21T11:57:56.648Z,37.00
2023-05-21T12:10:24.000Z,34.90
2023-05-21T12:12:55.451Z,35.40
2023-05-21T12:15:27.374Z,34.80
2023-05-21T12:17:56.874Z,34.90
2023-05-21T12:20:27.839Z,30.80
2023-05-21T12:22:55.791Z,29.80
2023-05-21T12:30:27.899Z,29.60
2023-05-21T12:32:59.450Z,28.70
2023-05-21T12:35:27.580Z,26.10
2023-05-21T12:45:37.133Z,22.60
2023-05-21T12:48:07.804Z,21.10
2023-05-21T12:50:36.590Z,15.90
2023-05-21T12:58:04.383Z,3.30
2023-05-21T13:00:35.299Z,1.20
2023-05-21T13:03:06.235Z,1.00
2023-05-21T13:08:02.914Z,1.00
2023-05-21T13:12:59.127Z,1.00
2023-05-21T13:15:27.017Z,1.00
2023-05-21T13:17:57.192Z,1.00
2023-05-21T13:25:28.295Z,1.00
2023-05-21T13:27:56.519Z,1.00
2023-05-21T13:32:52.854Z,1.00
2023-05-21T13:35:22.331Z,1.00
2023-05-21T13:37:50.602Z,1.00
2023-05-21T13:40:18.663Z,1.00
2023-05-21T13:42:48.318Z,1.00
2023-05-21T13:45:18.259Z,1.00
2023-05-21T13:47:47.155Z,1.00
2023-05-21T13:50:15.487Z,1.00
2023-05-21T13:52:44.804Z,1.00
2023-05-21T13:55:12.767Z,1.00
2023-05-21T13:57:40.810Z,1.00
2023-05-21T14:00:12.474Z,1.00
2023-05-21T14:02:40.421Z,1.00
2023-05-21T14:05:09.085Z,1.00
2023-05-21T14:07:37.452Z,1.00
2023-05-21T14:10:08.025Z,1.00
2023-05-21T14:12:35.887Z,1.00
2023-05-21T14:15:03.772Z,1.00
2023-05-21T14:17:31.591Z,1.00
2023-05-21T14:19:59.566Z,1.00
2023-05-21T14:22:27.503Z,1.00
2023-05-21T14:24:56.047Z,1.00
2023-05-21T14:27:25.692Z,1.00
2023-05-21T14:29:53.664Z,1.00
2023-05-21T14:34:49.972Z,1.00
2023-05-21T14:37:17.821Z,1.00
2023-05-21T14:42:14.109Z,1.00
2023-05-21T14:44:43.832Z,1.00
2023-05-21T14:47:11.753Z,1.00
2023-05-21T14:54:36.367Z,1.00
2023-05-21T14:57:04.523Z,1.00
2023-05-21T15:02:02.389Z,1.00
2023-05-21T15:04:30.462Z,1.00
2023-05-21T15:06:58.288Z,1.00
2023-05-21T15:16:51.081Z,1.00
2023-05-21T15:19:20.245Z,1.00
2023-05-21T15:21:48.081Z,1.00
2023-05-21T15:24:16.433Z,1.00
2023-05-21T15:26:44.272Z,1.00
2023-05-21T15:31:40.436Z,1.00
2023-05-21T15:34:08.278Z,1.00
2023-05-21T15:36:37.549Z,1.00
2023-05-21T15:39:06.102Z,1.00
2023-05-21T15:41:38.149Z,1.00
2023-05-21T15:44:06.487Z,1.00
2023-05-21T15:46:34.362Z,1.00
2023-05-21T15:51:30.672Z,1.00
2023-05-21T15:53:59.940Z,1.00
2023-05-21T15:56:27.940Z,1.00
2023-05-21T16:01:27.189Z,1.00
2023-05-21T16:03:55.263Z,1.00
2023-05-21T16:06:23.180Z,1.00
2023-05-21T16:08:50.981Z,1.00
2023-05-21T16:11:20.120Z,1.00
2023-05-21T16:13:47.923Z,1.00
2023-05-21T16:16:15.809Z,1.00
2023-05-21T16:18:43.751Z,1.00
2023-05-21T16:21:11.775Z,1.00
2023-05-21T16:23:39.792Z,1.00
2023-05-21T16:26:08.840Z,1.00
2023-05-21T16:28:38.403Z,1.00
2023-05-21T16:31:08.556Z,1.00
2023-05-21T16:33:36.977Z,1.00
2023-05-21T16:36:05.045Z,1.00
2023-05-21T16:38:33.064Z,1.00
2023-05-21T16:41:01.042Z,1.00
2023-05-21T16:43:28.922Z,1.00
2023-05-21T16:45:58.071Z,1.00
2023-05-21T16:48:25.976Z,1.00
2023-05-21T16:50:53.873Z,1.00
2023-05-21T16:53:21.765Z,1.00
2023-05-21T16:55:49.565Z,1.00
2023-05-21T16:58:17.389Z,1.00
2023-05-21T17:00:45.756Z,1.00
2023-05-21T17:03:15.167Z,1.00
2023-05-21T17:05:43.365Z,1.00
2023-05-21T17:08:11.368Z,1.00
2023-05-21T17:10:39.230Z,1.00
2023-05-21T17:13:20.638Z,1.00
2023-05-21T17:15:50.682Z,1.00
2023-05-21T17:18:20.082Z,1.00
2023-05-21T17:20:47.993Z,1.00
2023-05-21T17:23:16.013Z,1.00
2023-05-21T17:25:44.519Z,1.00
2023-05-21T17:28:12.693Z,1.00
2023-05-21T17:30:40.705Z,1.00
2023-05-21T17:33:10.250Z,1.00
2023-05-21T17:35:39.889Z,1.00
2023-05-21T17:38:08.066Z,1.00
2023-05-21T17:40:35.924Z,1.00
2023-05-21T17:43:04.236Z,1.00
2023-05-21T17:45:32.351Z,1.00
2023-05-21T17:48:00.788Z,1.00
2023-05-21T17:50:29.079Z,1.00
2023-05-21T17:52:58.248Z,1.00
2023-05-21T17:55:26.342Z,1.00
2023-05-21T17:57:54.192Z,1.00
2023-05-21T18:00:22.353Z,1.00
2023-05-21T18:02:50.594Z,1.00
2023-05-21T18:05:18.667Z,1.00
2023-05-21T18:07:46.488Z,1.00
2023-05-21T18:10:16.049Z,1.00
2023-05-21T18:12:46.084Z,1.00
2023-05-21T18:15:15.602Z,1.00
2023-05-21T18:17:43.553Z,1.00
2023-05-21T18:20:13.008Z,1.00
2023-05-21T18:22:40.909Z,1.00
2023-05-21T18:25:10.207Z,1.00
2023-05-21T18:27:39.365Z,1.00
2023-05-21T18:30:08.497Z,1.00
2023-05-21T18:32:38.495Z,1.00
2023-05-21T18:35:10.865Z,1.00
2023-05-21T18:37:42.073Z,1.00
2023-05-21T18:40:11.061Z,1.00
2023-05-21T18:42:40.361Z,1.00
2023-05-21T18:45:10.145Z,1.00
2023-05-21T18:47:40.149Z,1.00
2023-05-21T18:50:10.029Z,1.00
2023-05-21T18:52:37.893Z,1.00
2023-05-21T18:55:06.628Z,1.00
2023-05-21T18:57:34.967Z,1.00
2023-05-21T19:00:04.944Z,1.00
2023-05-21T19:02:32.965Z,1.00
2023-05-21T19:05:01.926Z,1.00
2023-05-21T19:07:29.913Z,1.00
2023-05-21T19:09:59.831Z,1.00
2023-05-21T19:12:29.299Z,1.00
2023-05-21T19:14:57.291Z,1.00
2023-05-21T19:17:26.579Z,1.00
2023-05-21T19:19:56.073Z,1.00
2023-05-21T19:22:24.823Z,1.00
2023-05-21T19:24:53.212Z,1.00
2023-05-21T19:27:21.781Z,1.00
2023-05-21T19:29:49.877Z,1.00
2023-05-21T19:32:17.880Z,1.00
2023-05-21T19:34:48.173Z,1.00
2023-05-21T19:37:16.674Z,1.00
2023-05-21T19:39:44.941Z,1.00
2023-05-21T19:42:12.782Z,1.00
2023-05-21T19:44:41.466Z,1.00
2023-05-21T19:47:09.794Z,1.00
2023-05-21T19:49:37.993Z,1.00
2023-05-21T19:52:07.366Z,1.00
2023-05-21T19:54:35.612Z,1.00
2023-05-21T19:57:03.414Z,1.00
2023-05-21T19:59:31.258Z,1.00
2023-05-21T20:01:59.226Z,1.00
2023-05-21T20:04:27.090Z,1.00
2023-05-21T20:06:55.004Z,1.00
2023-05-21T20:09:24.277Z,1.00
2023-05-21T20:11:52.326Z,1.00
2023-05-21T20:14:20.287Z,1.00
2023-05-21T20:16:48.424Z,1.00
2023-05-21T20:19:16.604Z,1.00
2023-05-21T20:21:44.560Z,1.00
2023-05-21T20:24:12.424Z,1.00
2023-05-21T20:26:44.787Z,1.00
2023-05-21T20:29:12.662Z,1.00
2023-05-21T20:31:40.559Z,1.00
2023-05-21T20:34:10.397Z,1.00
2023-05-21T20:36:40.310Z,1.00
2023-05-21T20:39:09.135Z,1.00
2023-05-21T20:41:38.610Z,2.40
2023-05-21T20:44:07.934Z,1.00
2023-05-21T20:46:38.488Z,4.90
2023-05-21T20:49:06.976Z,1.00
2023-05-21T20:51:34.820Z,5.90
2023-05-21T20:54:02.701Z,1.00
2023-05-21T20:56:41.567Z,6.80
2023-05-21T20:59:12.410Z,9.30
2023-05-21T21:01:40.746Z,10.50
2023-05-21T21:04:09.346Z,2.70
2023-05-21T21:06:38.228Z,12.70
2023-05-21T21:09:06.202Z,8.00
2023-05-21T21:11:34.381Z,10.30
2023-05-21T21:14:02.648Z,12.20
2023-05-21T21:16:31.950Z,21.70
2023-05-21T21:18:59.777Z,25.30
2023-05-21T21:21:28.433Z,27.20
2023-05-21T21:23:56.259Z,23.70
2023-05-21T21:26:25.056Z,33.80
2023-05-21T21:28:52.923Z,37.40
2023-05-21T21:31:21.215Z,30.20
2023-05-21T21:33:50.405Z,33.70
2023-05-21T21:36:18.293Z,45.90
2023-05-21T21:41:14.555Z,42.30
2023-05-21T21:43:42.407Z,43.30
2023-05-21T21:46:10.330Z,55.00
2023-05-21T21:48:38.413Z,56.20
2023-05-21T21:51:08.693Z,57.60
2023-05-21T21:53:36.529Z,49.50
2023-05-21T21:56:04.585Z,60.60
2023-05-21T21:58:32.392Z,61.60
2023-05-21T22:03:28.600Z,54.50
2023-05-21T22:05:56.422Z,54.60
2023-05-21T22:08:28.329Z,55.90
2023-05-21T22:10:56.227Z,67.60
2023-05-21T22:13:24.512Z,57.20
2023-05-21T22:15:52.484Z,58.50
2023-05-21T22:18:31.888Z,70.30
2023-05-21T22:21:09.542Z,60.80
2023-05-21T22:28:35.996Z,63.50
2023-05-21T22:36:01.156Z,68.90
2023-05-21T22:38:28.998Z,69.70
2023-05-21T22:40:58.228Z,70.10
2023-05-21T22:43:26.968Z,71.80
2023-05-21T22:48:23.238Z,69.70
2023-05-21T22:50:53.358Z,69.30
2023-05-21T22:55:49.766Z,70.30
2023-05-21T22:58:19.095Z,72.10
2023-05-21T23:00:47.851Z,71.40
2023-05-21T23:03:16.215Z,70.90
2023-05-21T23:05:44.242Z,70.30
2023-05-21T23:08:12.319Z,69.70
2023-05-21T23:10:40.487Z,70.30
2023-05-21T23:13:08.642Z,69.90
2023-05-21T23:15:38.938Z,70.60
2023-05-21T23:18:07.650Z,70.80
2023-05-21T23:20:36.664Z,69.80
2023-05-21T23:23:04.762Z,67.60
2023-05-21T23:25:32.532Z,65.10
2023-05-21T23:28:00.358Z,76.60
2023-05-21T23:30:28.149Z,63.10
2023-05-21T23:35:26.027Z,61.30
2023-05-21T23:37:53.820Z,61.10
2023-05-21T23:40:21.866Z,61.10
2023-05-21T23:42:49.673Z,59.60
2023-05-21T23:45:18.125Z,59.70
2023-05-21T23:47:46.438Z,58.20
2023-05-21T23:50:15.775Z,57.70
2023-05-21T23:55:14.567Z,56.70
2023-05-21T23:57:42.363Z,54.00
